createdAt,value
2017-08-24T00:00:33.431Z,16.00
2017-08-24T00:03:01.755Z,16.00
2017-08-24T00:05:30.061Z,16.00
2017-08-24T00:07:59.006Z,15.90
2017-08-24T00:10:28.325Z,15.90
2017-08-24T00:12:57.438Z,15.90
2017-08-24T00:15:26.002Z,15.90
2017-08-24T00:17:54.349Z,16.00
2017-08-24T00:20:22.780Z,16.00
2017-08-24T00:22:51.377Z,16.00
2017-08-24T00:25:20.540Z,16.00
2017-08-24T00:27:48.916Z,16.00
2017-08-24T00:30:17.517Z,16.00
2017-08-24T00:32:45.833Z,15.90
2017-08-24T00:35:14.157Z,15.90
2017-08-24T00:37:42.696Z,15.90
2017-08-24T00:40:11.034Z,15.90
2017-08-24T00:42:39.392Z,15.80
2017-08-24T00:45:07.762Z,15.80
2017-08-24T00:47:36.121Z,15.70
2017-08-24T00:50:04.440Z,15.80
2017-08-24T00:52:33.145Z,15.80
2017-08-24T00:55:01.543Z,15.80
2017-08-24T00:57:30.198Z,15.80
2017-08-24T00:59:58.749Z,15.70
2017-08-24T01:02:27.270Z,15.80
2017-08-24T01:04:55.649Z,15.80
2017-08-24T01:07:24.058Z,15.80
2017-08-24T01:09:52.397Z,15.80
2017-08-24T01:12:20.778Z,15.70
2017-08-24T01:14:49.257Z,15.70
2017-08-24T01:17:17.576Z,15.80
2017-08-24T01:19:45.948Z,15.80
2017-08-24T01:22:15.557Z,15.80
2017-08-24T01:24:43.925Z,15.80
2017-08-24T01:27:12.266Z,15.70
2017-08-24T01:29:40.724Z,15.70
2017-08-24T01:32:09.081Z,15.70
2017-08-24T01:34:37.422Z,15.70
2017-08-24T01:37:06.033Z,15.80
2017-08-24T01:39:34.366Z,15.90
2017-08-24T01:42:02.692Z,15.90
2017-08-24T01:44:31.331Z,15.80
2017-08-24T01:46:59.657Z,15.80
2017-08-24T01:49:27.965Z,15.80
2017-08-24T01:51:56.749Z,15.80
2017-08-24T01:54:25.096Z,15.70
2017-08-24T01:56:53.618Z,15.80
2017-08-24T01:59:22.225Z,15.80
2017-08-24T02:01:50.577Z,15.90
2017-08-24T02:04:18.901Z,15.80
2017-08-24T02:06:47.406Z,15.80
2017-08-24T02:09:15.739Z,15.80
2017-08-24T02:11:44.765Z,15.60
2017-08-24T02:14:13.114Z,15.60
2017-08-24T02:16:41.473Z,15.70
2017-08-24T02:19:09.804Z,15.70
2017-08-24T02:21:38.653Z,15.60
2017-08-24T02:24:07.032Z,15.70
2017-08-24T02:26:35.349Z,15.70
2017-08-24T02:29:03.821Z,15.60
2017-08-24T02:31:32.142Z,15.70
2017-08-24T02:34:01.213Z,15.80
2017-08-24T02:36:30.845Z,15.80
2017-08-24T02:38:59.154Z,15.80
2017-08-24T02:41:27.468Z,15.80
2017-08-24T02:43:55.980Z,15.90
2017-08-24T02:46:24.326Z,15.80
2017-08-24T02:48:52.660Z,15.80
2017-08-24T02:51:22.032Z,15.80
2017-08-24T02:53:50.497Z,15.80
2017-08-24T02:56:18.878Z,15.70
2017-08-24T02:58:47.389Z,15.70
2017-08-24T03:01:15.712Z,15.70
2017-08-24T03:03:44.073Z,15.70
2017-08-24T03:06:12.741Z,15.70
2017-08-24T03:08:41.069Z,15.80
2017-08-24T03:11:10.148Z,15.80
2017-08-24T03:13:38.854Z,15.80
2017-08-24T03:16:08.216Z,15.80
2017-08-24T03:18:36.567Z,15.80
2017-08-24T03:21:05.181Z,15.80
2017-08-24T03:23:33.498Z,15.80
2017-08-24T03:26:02.696Z,15.80
2017-08-24T03:28:31.111Z,15.80
2017-08-24T03:30:59.535Z,15.80
2017-08-24T03:33:27.947Z,15.90
2017-08-24T03:35:56.688Z,15.90
2017-08-24T03:38:25.120Z,15.90
2017-08-24T03:40:53.510Z,15.90
2017-08-24T03:43:22.512Z,15.90
2017-08-24T03:45:50.888Z,15.90
2017-08-24T03:48:19.243Z,15.90
2017-08-24T03:50:47.932Z,15.90
2017-08-24T03:53:16.269Z,16.00
2017-08-24T03:55:45.441Z,15.90
2017-08-24T03:58:13.990Z,15.90
2017-08-24T04:00:42.409Z,15.90
2017-08-24T04:03:10.806Z,15.90
2017-08-24T04:05:39.285Z,15.90
2017-08-24T04:08:07.606Z,15.80
2017-08-24T04:10:35.924Z,15.80
2017-08-24T04:13:04.337Z,15.90
2017-08-24T04:15:32.669Z,15.90
2017-08-24T04:18:00.979Z,15.90
2017-08-24T04:20:29.777Z,15.90
2017-08-24T04:22:58.107Z,15.80
2017-08-24T04:25:26.429Z,15.80
2017-08-24T04:27:54.890Z,15.80
2017-08-24T04:30:23.377Z,15.90
2017-08-24T04:32:51.698Z,15.90
2017-08-24T04:35:20.281Z,15.90
2017-08-24T04:37:48.604Z,15.90
2017-08-24T04:40:16.989Z,15.90
2017-08-24T04:42:45.385Z,15.90
2017-08-24T04:45:13.774Z,15.90
2017-08-24T04:47:42.081Z,16.00
2017-08-24T04:50:10.661Z,15.90
2017-08-24T04:52:38.969Z,16.00
2017-08-24T04:55:07.299Z,15.90
2017-08-24T04:57:35.901Z,15.90
2017-08-24T05:00:04.214Z,15.90
2017-08-24T05:02:32.526Z,15.90
2017-08-24T05:05:01.037Z,15.90
2017-08-24T05:07:29.370Z,15.90
2017-08-24T05:09:57.732Z,16.00
2017-08-24T05:12:26.178Z,16.00
2017-08-24T05:14:54.511Z,16.00
2017-08-24T05:17:22.844Z,16.00
2017-08-24T05:19:51.220Z,16.00
2017-08-24T05:22:19.561Z,16.00
2017-08-24T05:24:48.637Z,16.10
2017-08-24T05:27:17.319Z,16.10
2017-08-24T05:29:45.774Z,16.10
2017-08-24T05:32:14.665Z,16.10
2017-08-24T05:34:43.434Z,16.10
2017-08-24T05:37:11.770Z,16.20
2017-08-24T05:39:40.864Z,16.20
2017-08-24T05:42:09.639Z,16.20
2017-08-24T05:44:37.965Z,16.30
2017-08-24T05:47:06.278Z,16.30
2017-08-24T05:49:34.625Z,16.30
2017-08-24T05:52:02.972Z,16.40
2017-08-24T05:54:31.277Z,16.40
2017-08-24T05:56:59.832Z,16.50
2017-08-24T05:59:28.157Z,16.60
2017-08-24T06:01:57.369Z,16.90
2017-08-24T06:04:26.086Z,16.80
2017-08-24T06:06:54.407Z,16.90
2017-08-24T06:09:22.759Z,16.90
2017-08-24T06:11:51.504Z,16.90
2017-08-24T06:14:19.850Z,16.90
2017-08-24T06:16:48.176Z,16.90
2017-08-24T06:19:16.726Z,16.90
2017-08-24T06:21:45.059Z,16.90
2017-08-24T06:24:14.163Z,17.00
2017-08-24T06:26:42.718Z,17.00
2017-08-24T06:29:11.047Z,17.10
2017-08-24T06:31:39.427Z,17.20
2017-08-24T06:34:08.060Z,17.10
2017-08-24T06:36:36.389Z,17.20
2017-08-24T06:39:05.481Z,17.30
2017-08-24T06:41:34.044Z,17.30
2017-08-24T06:44:02.377Z,17.30
2017-08-24T06:46:30.694Z,17.30
2017-08-24T06:48:59.413Z,17.30
2017-08-24T06:51:27.720Z,17.40
2017-08-24T06:53:59.209Z,17.40
2017-08-24T06:56:27.928Z,17.40
2017-08-24T06:58:56.238Z,17.50
2017-08-24T07:01:24.725Z,17.60
2017-08-24T07:03:54.333Z,17.60
2017-08-24T07:06:23.156Z,17.60
2017-08-24T07:08:51.637Z,17.80
2017-08-24T07:11:20.386Z,17.90
2017-08-24T07:13:48.712Z,17.90
2017-08-24T07:16:17.037Z,17.80
2017-08-24T07:18:45.723Z,17.90
2017-08-24T07:21:14.033Z,17.70
2017-08-24T07:23:42.405Z,17.40
2017-08-24T07:26:10.937Z,17.20
2017-08-24T07:28:39.271Z,17.10
2017-08-24T07:31:07.634Z,16.90
2017-08-24T07:33:36.260Z,16.80
2017-08-24T07:36:05.608Z,16.80
2017-08-24T07:38:33.958Z,16.90
2017-08-24T07:41:02.640Z,17.00
2017-08-24T07:43:30.976Z,17.00
2017-08-24T07:45:59.301Z,17.10
2017-08-24T07:48:27.921Z,17.10
2017-08-24T07:50:56.309Z,17.20
2017-08-24T07:53:24.648Z,17.20
2017-08-24T07:55:54.001Z,17.40
2017-08-24T07:58:22.334Z,17.30
2017-08-24T08:00:50.805Z,17.50
2017-08-24T08:03:19.476Z,17.60
2017-08-24T08:05:47.805Z,17.70
2017-08-24T08:08:16.169Z,17.90
2017-08-24T08:10:44.765Z,18.00
2017-08-24T08:13:13.179Z,18.00
2017-08-24T08:15:41.501Z,18.10
2017-08-24T08:18:10.275Z,18.20
2017-08-24T08:20:38.600Z,18.30
2017-08-24T08:23:06.978Z,18.40
2017-08-24T08:25:35.441Z,18.40
2017-08-24T08:28:03.793Z,18.60
2017-08-24T08:30:32.122Z,18.80
2017-08-24T08:33:00.675Z,19.10
2017-08-24T08:35:29.055Z,19.30
2017-08-24T08:37:57.466Z,19.50
2017-08-24T08:40:25.889Z,19.70
2017-08-24T08:42:55.149Z,19.90
2017-08-24T08:45:23.483Z,20.30
2017-08-24T08:47:52.266Z,20.50
2017-08-24T08:50:20.585Z,20.70
2017-08-24T08:52:48.888Z,20.70
2017-08-24T08:55:17.395Z,20.70
2017-08-24T08:57:45.738Z,20.80
2017-08-24T09:00:14.928Z,20.80
2017-08-24T09:02:43.633Z,20.80
2017-08-24T09:05:12.107Z,20.70
2017-08-24T09:07:40.418Z,20.60
2017-08-24T09:10:08.956Z,20.50
2017-08-24T09:12:38.331Z,20.40
2017-08-24T09:15:06.941Z,20.20
2017-08-24T09:17:35.347Z,20.10
2017-08-24T09:20:03.820Z,20.10
2017-08-24T09:22:32.148Z,20.30
2017-08-24T09:25:01.385Z,20.30
2017-08-24T09:27:29.707Z,20.30
2017-08-24T09:29:58.025Z,20.30
2017-08-24T09:32:26.383Z,20.20
2017-08-24T09:34:54.693Z,20.10
2017-08-24T09:37:23.255Z,20.10
2017-08-24T09:39:51.933Z,20.30
2017-08-24T09:42:21.406Z,20.50
2017-08-24T09:44:49.737Z,20.50
2017-08-24T09:47:18.238Z,20.60
2017-08-24T09:49:46.993Z,20.60
2017-08-24T09:52:15.377Z,20.60
2017-08-24T09:54:43.951Z,20.50
2017-08-24T09:57:12.299Z,20.50
2017-08-24T09:59:40.749Z,20.40
2017-08-24T10:02:10.296Z,20.30
2017-08-24T10:04:38.663Z,20.20
2017-08-24T10:07:07.259Z,20.10
2017-08-24T10:09:36.944Z,20.00
2017-08-24T10:12:06.417Z,20.00
2017-08-24T10:14:34.745Z,19.90
2017-08-24T10:17:03.541Z,19.70
2017-08-24T10:19:32.877Z,19.50
2017-08-24T10:22:03.832Z,19.30
2017-08-24T10:24:33.592Z,19.20
2017-08-24T10:27:01.905Z,19.30
2017-08-24T10:29:32.254Z,19.50
2017-08-24T10:32:01.512Z,20.20
2017-08-24T10:34:31.028Z,21.30
2017-08-24T10:36:59.776Z,22.20
2017-08-24T10:39:28.619Z,22.90
2017-08-24T10:41:56.945Z,23.60
2017-08-24T10:44:25.259Z,24.20
2017-08-24T10:46:53.809Z,24.30
2017-08-24T10:49:22.125Z,24.60
2017-08-24T10:51:50.467Z,24.80
2017-08-24T10:54:19.207Z,24.30
2017-08-24T10:56:47.530Z,24.00
2017-08-24T10:59:15.840Z,24.10
2017-08-24T11:01:44.351Z,24.50
2017-08-24T11:04:12.832Z,25.10
2017-08-24T11:06:41.228Z,25.40
2017-08-24T11:09:10.886Z,25.80
2017-08-24T11:11:39.394Z,25.30
2017-08-24T11:14:07.979Z,24.80
2017-08-24T11:16:37.047Z,24.40
2017-08-24T11:19:06.041Z,24.10
2017-08-24T11:21:35.364Z,23.90
2017-08-24T11:24:04.180Z,24.40
2017-08-24T11:26:32.527Z,25.20
2017-08-24T11:29:00.845Z,25.70
2017-08-24T11:31:29.402Z,25.80
2017-08-24T11:33:57.746Z,25.80
2017-08-24T11:36:26.061Z,26.30
2017-08-24T11:38:54.536Z,26.40
2017-08-24T11:41:22.891Z,26.20
2017-08-24T11:43:52.041Z,26.00
2017-08-24T11:46:20.609Z,25.50
2017-08-24T11:48:48.904Z,25.70
2017-08-24T11:51:17.227Z,25.90
2017-08-24T11:53:45.807Z,25.80
2017-08-24T11:56:14.146Z,25.90
2017-08-24T11:58:42.469Z,26.30
2017-08-24T12:01:11.153Z,26.30
2017-08-24T12:03:39.513Z,26.10
2017-08-24T12:06:08.834Z,26.30
2017-08-24T12:08:37.430Z,26.30
2017-08-24T12:11:05.761Z,26.10
2017-08-24T12:13:34.088Z,25.90
2017-08-24T12:16:02.657Z,25.80
2017-08-24T12:18:31.616Z,25.70
2017-08-24T12:20:59.945Z,25.80
2017-08-24T12:23:28.590Z,25.80
2017-08-24T12:25:56.944Z,26.10
2017-08-24T12:28:25.267Z,25.90
2017-08-24T12:30:53.821Z,25.70
2017-08-24T12:33:23.030Z,25.70
2017-08-24T12:35:52.625Z,25.90
2017-08-24T12:38:21.379Z,26.30
2017-08-24T12:40:49.697Z,26.40
2017-08-24T12:43:18.055Z,26.20
2017-08-24T12:45:47.635Z,26.50
2017-08-24T12:48:16.011Z,26.90
2017-08-24T12:50:44.600Z,26.50
2017-08-24T12:53:13.171Z,26.00
2017-08-24T12:55:41.540Z,25.40
2017-08-24T12:58:09.980Z,25.00
2017-08-24T13:00:38.706Z,24.50
2017-08-24T13:03:07.054Z,24.40
2017-08-24T13:05:35.373Z,24.50
2017-08-24T13:08:03.838Z,24.20
2017-08-24T13:10:32.186Z,23.80
2017-08-24T13:13:01.530Z,23.90
2017-08-24T13:15:30.104Z,24.60
2017-08-24T13:17:59.356Z,25.10
2017-08-24T13:20:27.762Z,25.50
2017-08-24T13:22:56.585Z,25.50
2017-08-24T13:25:24.899Z,24.80
2017-08-24T13:27:53.279Z,24.40
2017-08-24T13:30:23.988Z,24.20
2017-08-24T13:32:53.367Z,24.30
2017-08-24T13:35:21.894Z,24.30
2017-08-24T13:37:50.692Z,24.40
2017-08-24T13:40:19.250Z,24.70
2017-08-24T13:42:47.595Z,25.20
2017-08-24T13:45:16.487Z,25.70
2017-08-24T13:47:46.444Z,25.90
2017-08-24T13:50:15.081Z,25.80
2017-08-24T13:52:43.492Z,25.70
2017-08-24T13:55:11.880Z,25.60
2017-08-24T13:57:41.085Z,25.30
2017-08-24T14:00:09.597Z,24.90
2017-08-24T14:02:37.923Z,24.80
2017-08-24T14:05:06.411Z,24.20
2017-08-24T14:07:34.977Z,23.90
2017-08-24T14:10:03.342Z,24.10
2017-08-24T14:12:31.850Z,24.40
2017-08-24T14:15:00.501Z,24.60
2017-08-24T14:17:29.045Z,25.00
2017-08-24T14:19:57.389Z,25.40
2017-08-24T14:22:26.572Z,25.60
2017-08-24T14:24:54.951Z,25.50
2017-08-24T14:27:23.557Z,25.90
2017-08-24T14:29:52.280Z,26.40
2017-08-24T14:32:22.442Z,26.60
2017-08-24T14:34:51.543Z,26.80
2017-08-24T14:37:20.126Z,26.80
2017-08-24T14:39:48.484Z,26.30
2017-08-24T14:42:16.810Z,25.50
2017-08-24T14:44:45.401Z,25.50
2017-08-24T14:47:13.774Z,25.80
2017-08-24T14:49:42.151Z,25.80
2017-08-24T14:52:10.634Z,25.70
2017-08-24T14:54:39.022Z,25.70
2017-08-24T14:57:08.609Z,25.60
2017-08-24T14:59:37.148Z,25.60
2017-08-24T15:02:06.749Z,25.20
2017-08-24T15:04:35.760Z,24.70
2017-08-24T15:07:04.382Z,24.50
2017-08-24T15:09:33.561Z,24.30
2017-08-24T15:12:01.884Z,24.10
2017-08-24T15:14:30.694Z,23.80
2017-08-24T15:16:59.020Z,23.70
2017-08-24T15:19:27.381Z,23.40
2017-08-24T15:21:56.282Z,23.40
2017-08-24T15:24:24.710Z,23.40
2017-08-24T15:26:53.012Z,23.30
2017-08-24T15:29:21.692Z,23.40
2017-08-24T15:31:50.845Z,23.30
2017-08-24T15:34:19.226Z,23.00
2017-08-24T15:36:47.589Z,22.80
2017-08-24T15:39:15.945Z,22.40
2017-08-24T15:41:44.303Z,22.10
2017-08-24T15:44:12.921Z,21.80
2017-08-24T15:46:41.290Z,21.70
2017-08-24T15:49:09.690Z,21.50
2017-08-24T15:51:38.463Z,21.40
2017-08-24T15:54:06.775Z,21.30
2017-08-24T15:56:35.092Z,21.20
2017-08-24T15:59:03.878Z,21.20
2017-08-24T16:01:32.417Z,21.10
2017-08-24T16:04:00.761Z,21.00
2017-08-24T16:06:29.857Z,21.00
2017-08-24T16:08:58.192Z,20.80
2017-08-24T16:11:26.533Z,20.90
2017-08-24T16:13:55.217Z,20.70
2017-08-24T16:16:23.551Z,20.70
2017-08-24T16:18:51.877Z,20.80
2017-08-24T16:21:21.528Z,20.80
2017-08-24T16:23:49.852Z,20.80
2017-08-24T16:26:18.197Z,20.80
2017-08-24T16:28:46.714Z,20.70
2017-08-24T16:31:15.085Z,20.70
2017-08-24T16:33:43.462Z,20.60
2017-08-24T16:36:12.110Z,20.50
2017-08-24T16:38:40.462Z,20.50
2017-08-24T16:41:08.926Z,20.40
2017-08-24T16:43:37.645Z,20.30
2017-08-24T16:46:06.948Z,20.30
2017-08-24T16:48:35.314Z,20.30
2017-08-24T16:51:04.071Z,20.30
2017-08-24T16:53:32.421Z,20.20
2017-08-24T16:56:00.750Z,20.10
2017-08-24T16:58:29.352Z,20.10
2017-08-24T17:00:58.855Z,20.10
2017-08-24T17:03:27.172Z,20.00
2017-08-24T17:05:57.489Z,19.90
2017-08-24T17:08:25.817Z,19.90
2017-08-24T17:10:54.186Z,19.80
2017-08-24T17:13:23.914Z,19.70
2017-08-24T17:15:52.241Z,19.60
2017-08-24T17:18:20.566Z,19.60
2017-08-24T17:20:50.114Z,19.50
2017-08-24T17:23:18.566Z,19.50
2017-08-24T17:25:46.956Z,19.50
2017-08-24T17:28:15.562Z,19.50
2017-08-24T17:30:43.905Z,19.40
2017-08-24T17:33:12.290Z,19.40
2017-08-24T17:35:41.475Z,19.40
2017-08-24T17:38:10.001Z,19.40
2017-08-24T17:40:39.024Z,19.30
2017-08-24T17:43:07.583Z,19.30
2017-08-24T17:45:36.054Z,19.20
2017-08-24T17:48:07.550Z,19.10
2017-08-24T17:50:36.278Z,19.00
2017-08-24T17:53:05.510Z,18.90
2017-08-24T17:55:33.836Z,18.90
2017-08-24T17:58:05.100Z,18.90
2017-08-24T18:00:33.471Z,18.90
2017-08-24T18:03:04.332Z,18.90
2017-08-24T18:05:33.104Z,18.80
2017-08-24T18:08:02.420Z,18.70
2017-08-24T18:10:30.778Z,18.60
2017-08-24T18:12:59.298Z,18.60
2017-08-24T18:15:27.621Z,18.50
2017-08-24T18:17:56.050Z,18.50
2017-08-24T18:20:24.740Z,18.40
2017-08-24T18:22:53.087Z,18.40
2017-08-24T18:25:22.490Z,18.40
2017-08-24T18:27:52.246Z,18.30
2017-08-24T18:30:21.173Z,18.30
2017-08-24T18:32:49.905Z,18.20
2017-08-24T18:35:18.760Z,18.20
2017-08-24T18:37:47.100Z,18.10
2017-08-24T18:40:16.400Z,18.10
2017-08-24T18:42:45.200Z,18.00
2017-08-24T18:45:14.293Z,18.00
2017-08-24T18:47:42.680Z,17.90
2017-08-24T18:50:11.282Z,17.90
2017-08-24T18:52:39.610Z,17.80
2017-08-24T18:55:08.186Z,17.70
2017-08-24T18:57:36.757Z,17.70
2017-08-24T19:00:05.181Z,17.70
2017-08-24T19:02:33.523Z,17.70
2017-08-24T19:05:03.190Z,17.60
2017-08-24T19:07:32.579Z,17.60
2017-08-24T19:10:00.941Z,17.50
2017-08-24T19:12:29.634Z,17.50
2017-08-24T19:14:57.957Z,17.40
2017-08-24T19:17:27.393Z,17.40
2017-08-24T19:19:56.047Z,17.40
2017-08-24T19:22:25.312Z,17.40
2017-08-24T19:24:53.688Z,17.30
2017-08-24T19:27:23.080Z,17.30
2017-08-24T19:29:51.438Z,17.30
2017-08-24T19:32:21.459Z,17.30
2017-08-24T19:34:50.369Z,17.20
2017-08-24T19:37:18.846Z,17.20
2017-08-24T19:39:47.190Z,17.20
2017-08-24T19:42:15.759Z,17.10
2017-08-24T19:44:44.163Z,17.10
2017-08-24T19:47:13.853Z,17.00
2017-08-24T19:49:43.021Z,17.00
2017-08-24T19:52:11.513Z,17.00
2017-08-24T19:54:40.504Z,17.00
2017-08-24T19:57:09.475Z,17.00
2017-08-24T19:59:37.814Z,17.00
2017-08-24T20:02:06.158Z,16.90
2017-08-24T20:04:35.775Z,16.90
2017-08-24T20:07:04.217Z,16.90
2017-08-24T20:09:33.577Z,16.90
2017-08-24T20:12:02.077Z,16.80
2017-08-24T20:14:30.454Z,16.80
2017-08-24T20:16:58.835Z,16.80
2017-08-24T20:19:27.424Z,16.80
2017-08-24T20:21:55.794Z,16.80
2017-08-24T20:24:24.113Z,16.70
2017-08-24T20:26:52.601Z,16.70
2017-08-24T20:29:21.058Z,16.70
2017-08-24T20:31:49.521Z,16.60
2017-08-24T20:34:18.105Z,16.60
2017-08-24T20:36:46.621Z,16.60
2017-08-24T20:39:15.017Z,16.50
2017-08-24T20:41:43.907Z,16.50
2017-08-24T20:44:13.258Z,16.50
2017-08-24T20:46:41.661Z,16.40
2017-08-24T20:49:10.316Z,16.50
2017-08-24T20:51:39.061Z,16.40
2017-08-24T20:54:07.410Z,16.40
2017-08-24T20:56:38.761Z,16.40
2017-08-24T20:59:07.630Z,16.40
2017-08-24T21:01:36.028Z,16.40
2017-08-24T21:04:05.781Z,16.40
2017-08-24T21:06:34.118Z,16.40
2017-08-24T21:09:02.441Z,16.40
2017-08-24T21:11:30.989Z,16.40
2017-08-24T21:13:59.311Z,16.40
2017-08-24T21:16:27.643Z,16.40
2017-08-24T21:18:56.127Z,16.40
2017-08-24T21:21:24.606Z,16.40
2017-08-24T21:23:52.947Z,16.40
2017-08-24T21:26:21.409Z,16.30
2017-08-24T21:28:49.745Z,16.30
2017-08-24T21:31:18.075Z,16.30
2017-08-24T21:33:47.201Z,16.30
2017-08-24T21:36:15.582Z,16.20
2017-08-24T21:38:43.920Z,16.20
2017-08-24T21:41:12.583Z,16.20
2017-08-24T21:43:41.215Z,16.20
2017-08-24T21:46:10.604Z,16.20
2017-08-24T21:48:39.460Z,16.20
2017-08-24T21:51:09.215Z,16.10
2017-08-24T21:53:37.824Z,16.10
2017-08-24T21:56:09.103Z,16.00
2017-08-24T21:58:37.452Z,16.00
2017-08-24T22:01:06.000Z,16.00
2017-08-24T22:03:34.690Z,16.00
2017-08-24T22:06:03.040Z,16.00
2017-08-24T22:08:31.399Z,16.00
2017-08-24T22:11:00.901Z,15.90
2017-08-24T22:13:30.186Z,15.90
2017-08-24T22:15:58.535Z,15.90
2017-08-24T22:18:27.017Z,15.90
2017-08-24T22:20:55.431Z,15.90
2017-08-24T22:23:23.774Z,15.90
2017-08-24T22:25:52.462Z,15.90
2017-08-24T22:28:20.798Z,15.90
2017-08-24T22:30:49.113Z,15.90
2017-08-24T22:33:18.429Z,15.90
2017-08-24T22:35:46.826Z,15.90
2017-08-24T22:38:15.233Z,15.90
2017-08-24T22:40:44.027Z,15.90
2017-08-24T22:43:12.693Z,15.90
2017-08-24T22:45:42.010Z,15.90
2017-08-24T22:48:10.566Z,15.90
2017-08-24T22:50:39.161Z,16.00
2017-08-24T22:53:13.473Z,16.00
2017-08-24T22:55:47.737Z,16.00
2017-08-24T22:58:22.033Z,16.00
2017-08-24T23:00:57.966Z,16.00
2017-08-24T23:06:26.331Z,16.00
2017-08-24T23:08:55.147Z,16.00
2017-08-24T23:11:24.318Z,16.00
2017-08-24T23:13:52.681Z,16.00
2017-08-24T23:16:21.186Z,16.00
2017-08-24T23:18:49.561Z,16.00
2017-08-24T23:21:17.911Z,16.00
2017-08-24T23:23:47.303Z,16.00
2017-08-24T23:26:15.766Z,15.90
2017-08-24T23:28:44.240Z,15.90
2017-08-24T23:31:12.924Z,15.90
2017-08-24T23:33:41.308Z,15.90
2017-08-24T23:36:09.704Z,15.90
2017-08-24T23:38:38.576Z,15.80
2017-08-24T23:41:06.986Z,15.80
2017-08-24T23:43:35.377Z,15.70
2017-08-24T23:46:04.517Z,15.70
2017-08-24T23:48:32.844Z,15.70
2017-08-24T23:51:01.160Z,15.70
2017-08-24T23:53:29.756Z,15.80
2017-08-24T23:55:58.169Z,15.70
2017-08-24T23:58:26.515Z,15.80
